sensor_id;sensor_type;location;lat;lon;timestamp;pressure;altitude;pressure_sealevel;temperature;humidity
41264;BME280;26998;48.714;9.414;2023-02-28T00:02:16;99433.75;;;-2.29;100.00
41264;BME280;26998;48.714;9.414;2023-02-28T00:04:43;99438.06;;;-2.03;100.00
41264;BME280;26998;48.714;9.414;2023-02-28T00:07:10;99434.50;;;-2.15;100.00
41264;BME280;26998;48.714;9.414;2023-02-28T00:09:36;99432.59;;;-2.25;100.00
41264;BME280;26998;48.714;9.414;2023-02-28T00:12:03;99428.50;;;-2.29;100.00
41264;BME280;26998;48.714;9.414;2023-02-28T00:14:30;99436.97;;;-2.39;100.00
41264;BME280;26998;48.714;9.414;2023-02-28T00:16:57;99435.50;;;-2.43;100.00
41264;BME280;26998;48.714;9.414;2023-02-28T00:19:23;99439.06;;;-2.31;100.00
41264;BME280;26998;48.714;9.414;2023-02-28T00:21:50;99429.56;;;-2.19;100.00
41264;BME280;26998;48.714;9.414;2023-02-28T00:24:16;99435.44;;;-2.16;100.00
41264;BME280;26998;48.714;9.414;2023-02-28T00:26:43;99429.47;;;-2.30;100.00
41264;BME280;26998;48.714;9.414;2023-02-28T00:29:10;99423.78;;;-2.37;100.00
41264;BME280;26998;48.714;9.414;2023-02-28T00:31:36;99434.91;;;-2.34;100.00
41264;BME280;26998;48.714;9.414;2023-02-28T00:34:03;99433.13;;;-2.33;100.00
41264;BME280;26998;48.714;9.414;2023-02-28T00:36:29;99426.59;;;-2.27;100.00
41264;BME280;26998;48.714;9.414;2023-02-28T00:38:56;99434.16;;;-2.36;100.00
41264;BME280;26998;48.714;9.414;2023-02-28T00:41:22;99434.25;;;-2.37;100.00
41264;BME280;26998;48.714;9.414;2023-02-28T00:43:49;99436.22;;;-2.41;100.00
41264;BME280;26998;48.714;9.414;2023-02-28T00:46:15;99442.63;;;-2.45;100.00
41264;BME280;26998;48.714;9.414;2023-02-28T00:48:42;99441.47;;;-2.41;100.00
41264;BME280;26998;48.714;9.414;2023-02-28T00:51:09;99434.91;;;-2.34;100.00
41264;BME280;26998;48.714;9.414;2023-02-28T00:53:35;99431.84;;;-2.27;100.00
41264;BME280;26998;48.714;9.414;2023-02-28T00:56:02;99440.13;;;-2.34;100.00
41264;BME280;26998;48.714;9.414;2023-02-28T00:58:29;99437.94;;;-2.40;100.00
41264;BME280;26998;48.714;9.414;2023-02-28T01:00:56;99437.38;;;-2.45;100.00
41264;BME280;26998;48.714;9.414;2023-02-28T01:03:23;99442.00;;;-2.36;100.00
41264;BME280;26998;48.714;9.414;2023-02-28T01:05:50;99434.59;;;-2.29;100.00
41264;BME280;26998;48.714;9.414;2023-02-28T01:08:17;99430.94;;;-2.26;100.00
41264;BME280;26998;48.714;9.414;2023-02-28T01:10:43;99434.66;;;-2.43;100.00
41264;BME280;26998;48.714;9.414;2023-02-28T01:13:11;99429.94;;;-2.51;100.00
41264;BME280;26998;48.714;9.414;2023-02-28T01:15:39;99435.91;;;-2.49;100.00
41264;BME280;26998;48.714;9.414;2023-02-28T01:18:08;99435.81;;;-2.47;100.00
41264;BME280;26998;48.714;9.414;2023-02-28T01:20:37;99435.50;;;-2.43;100.00
41264;BME280;26998;48.714;9.414;2023-02-28T01:23:03;99434.56;;;-2.42;100.00
41264;BME280;26998;48.714;9.414;2023-02-28T01:25:30;99435.50;;;-2.43;100.00
41264;BME280;26998;48.714;9.414;2023-02-28T01:27:56;99430.91;;;-2.39;100.00
41264;BME280;26998;48.714;9.414;2023-02-28T01:30:22;99437.94;;;-2.40;100.00
41264;BME280;26998;48.714;9.414;2023-02-28T01:32:49;99439.06;;;-2.44;100.00
41264;BME280;26998;48.714;9.414;2023-02-28T01:35:16;99436.03;;;-2.38;100.00
41264;BME280;26998;48.714;9.414;2023-02-28T01:37:42;99436.88;;;-2.37;100.00
41264;BME280;26998;48.714;9.414;2023-02-28T01:40:09;99433.00;;;-2.32;100.00
41264;BME280;26998;48.714;9.414;2023-02-28T01:42:36;99433.75;;;-2.29;100.00
41264;BME280;26998;48.714;9.414;2023-02-28T01:45:18;99432.50;;;-2.37;100.00
41264;BME280;26998;48.714;9.414;2023-02-28T01:47:48;99426.72;;;-2.42;100.00
41264;BME280;26998;48.714;9.414;2023-02-28T01:50:19;99431.31;;;-2.45;100.00
41264;BME280;26998;48.714;9.414;2023-02-28T01:52:47;99437.19;;;-2.42;100.00
41264;BME280;26998;48.714;9.414;2023-02-28T01:55:15;99428.38;;;-2.41;100.00
41264;BME280;26998;48.714;9.414;2023-02-28T01:57:46;99434.66;;;-2.43;100.00
41264;BME280;26998;48.714;9.414;2023-02-28T02:00:17;99428.06;;;-2.49;100.00
41264;BME280;26998;48.714;9.414;2023-02-28T02:02:48;99428.78;;;-2.47;100.00
41264;BME280;26998;48.714;9.414;2023-02-28T02:05:21;99427.53;;;-2.54;100.00
41264;BME280;26998;48.714;9.414;2023-02-28T02:07:51;99427.31;;;-2.51;100.00
41264;BME280;26998;48.714;9.414;2023-02-28T02:10:23;99420.94;;;-2.47;100.00
41264;BME280;26998;48.714;9.414;2023-02-28T02:18:40;99423.53;;;-2.47;100.00
41264;BME280;26998;48.714;9.414;2023-02-28T02:26:44;99409.94;;;-2.52;100.00
41264;BME280;26998;48.714;9.414;2023-02-28T02:32:35;99409.19;;;-2.54;100.00
41264;BME280;26998;48.714;9.414;2023-02-28T02:35:12;99417.25;;;-2.57;100.00
41264;BME280;26998;48.714;9.414;2023-02-28T02:37:55;99402.38;;;-2.57;100.00
41264;BME280;26998;48.714;9.414;2023-02-28T02:40:30;99411.38;;;-2.61;100.00
41264;BME280;26998;48.714;9.414;2023-02-28T02:46:11;99421.22;;;-2.64;100.00
41264;BME280;26998;48.714;9.414;2023-02-28T02:48:44;99423.69;;;-2.36;100.00
41264;BME280;26998;48.714;9.414;2023-02-28T02:51:17;99414.47;;;-2.41;100.00
41264;BME280;26998;48.714;9.414;2023-02-28T02:53:58;99421.34;;;-2.53;100.00
41264;BME280;26998;48.714;9.414;2023-02-28T02:56:28;99416.50;;;-2.59;100.00
41264;BME280;26998;48.714;9.414;2023-02-28T02:59:00;99412.22;;;-2.60;100.00
41264;BME280;26998;48.714;9.414;2023-02-28T03:01:30;99416.41;;;-2.58;100.00
41264;BME280;26998;48.714;9.414;2023-02-28T03:04:01;99415.47;;;-2.57;100.00
41264;BME280;26998;48.714;9.414;2023-02-28T03:06:29;99425.72;;;-2.53;100.00
41264;BME280;26998;48.714;9.414;2023-02-28T03:08:55;99426.38;;;-2.50;100.00
41264;BME280;26998;48.714;9.414;2023-02-28T03:11:22;99418.50;;;-2.50;100.00
41264;BME280;26998;48.714;9.414;2023-02-28T03:14:09;99427.59;;;-2.56;100.00
41264;BME280;26998;48.714;9.414;2023-02-28T03:16:49;99427.53;;;-2.54;100.00
41264;BME280;26998;48.714;9.414;2023-02-28T03:22:18;99435.16;;;-2.51;100.00
41264;BME280;26998;48.714;9.414;2023-02-28T03:27:29;99432.09;;;-2.30;100.00
41264;BME280;26998;48.714;9.414;2023-02-28T03:30:01;99428.72;;;-2.33;100.00
41264;BME280;26998;48.714;9.414;2023-02-28T03:32:34;99427.13;;;-2.35;100.00
41264;BME280;26998;48.714;9.414;2023-02-28T03:35:09;99432.50;;;-2.37;100.00
41264;BME280;26998;48.714;9.414;2023-02-28T03:37:40;99426.91;;;-2.45;100.00
41264;BME280;26998;48.714;9.414;2023-02-28T03:40:12;99425.88;;;-2.42;100.00
41264;BME280;26998;48.714;9.414;2023-02-28T03:42:43;99429.31;;;-2.42;100.00
41264;BME280;26998;48.714;9.414;2023-02-28T03:47:53;99420.88;;;-2.33;100.00
41264;BME280;26998;48.714;9.414;2023-02-28T03:53:04;99435.41;;;-2.28;100.00
41264;BME280;26998;48.714;9.414;2023-02-28T03:55:39;99423.91;;;-2.26;100.00
41264;BME280;26998;48.714;9.414;2023-02-28T03:58:15;99422.75;;;-2.22;100.00
41264;BME280;26998;48.714;9.414;2023-02-28T04:00:54;99429.69;;;-2.21;100.00
41264;BME280;26998;48.714;9.414;2023-02-28T04:03:21;99426.41;;;-2.24;100.00
41264;BME280;26998;48.714;9.414;2023-02-28T04:05:53;99437.13;;;-2.15;100.00
41264;BME280;26998;48.714;9.414;2023-02-28T04:08:21;99434.06;;;-2.21;100.00
41264;BME280;26998;48.714;9.414;2023-02-28T04:10:54;99426.88;;;-2.05;100.00
41264;BME280;26998;48.714;9.414;2023-02-28T04:13:22;99422.47;;;-2.17;100.00
41264;BME280;26998;48.714;9.414;2023-02-28T04:15:49;99434.91;;;-2.21;100.00
41264;BME280;26998;48.714;9.414;2023-02-28T04:18:16;99441.91;;;-2.21;100.00
41264;BME280;26998;48.714;9.414;2023-02-28T04:20:42;99439.28;;;-2.21;100.00
41264;BME280;26998;48.714;9.414;2023-02-28T04:23:08;99439.13;;;-2.05;100.00
41264;BME280;26998;48.714;9.414;2023-02-28T04:25:35;99434.50;;;-2.15;100.00
41264;BME280;26998;48.714;9.414;2023-02-28T04:28:02;99442.44;;;-2.16;100.00
41264;BME280;26998;48.714;9.414;2023-02-28T04:30:30;99440.38;;;-2.11;100.00
41264;BME280;26998;48.714;9.414;2023-02-28T04:32:56;99434.38;;;-2.13;100.00
41264;BME280;26998;48.714;9.414;2023-02-28T04:35:22;99440.03;;;-2.19;100.00
41264;BME280;26998;48.714;9.414;2023-02-28T04:37:49;99444.53;;;-2.21;100.00
41264;BME280;26998;48.714;9.414;2023-02-28T04:40:16;99443.41;;;-2.17;100.00
41264;BME280;26998;48.714;9.414;2023-02-28T04:42:42;99446.84;;;-2.17;100.00
41264;BME280;26998;48.714;9.414;2023-02-28T04:45:09;99444.53;;;-2.21;100.00
41264;BME280;26998;48.714;9.414;2023-02-28T04:47:36;99433.00;;;-2.19;100.00
41264;BME280;26998;48.714;9.414;2023-02-28T04:50:03;99436.38;;;-2.04;100.00
41264;BME280;26998;48.714;9.414;2023-02-28T04:52:29;99431.56;;;-1.97;100.00
41264;BME280;26998;48.714;9.414;2023-02-28T04:54:56;99434.31;;;-1.86;100.00
41264;BME280;26998;48.714;9.414;2023-02-28T04:57:22;99429.78;;;-1.97;100.00
41264;BME280;26998;48.714;9.414;2023-02-28T04:59:49;99428.13;;;-1.98;100.00
41264;BME280;26998;48.714;9.414;2023-02-28T05:02:15;99428.13;;;-1.98;100.00
41264;BME280;26998;48.714;9.414;2023-02-28T05:04:42;99433.34;;;-1.98;100.00
41264;BME280;26998;48.714;9.414;2023-02-28T05:07:08;99438.59;;;-1.98;100.00
41264;BME280;26998;48.714;9.414;2023-02-28T05:09:35;99438.06;;;-2.03;100.00
41264;BME280;26998;48.714;9.414;2023-02-28T05:12:01;99429.28;;;-2.02;100.00
41264;BME280;26998;48.714;9.414;2023-02-28T05:14:28;99426.75;;;-1.91;100.00
41264;BME280;26998;48.714;9.414;2023-02-28T05:16:55;99421.72;;;-1.81;100.00
41264;BME280;26998;48.714;9.414;2023-02-28T05:19:21;99419.63;;;-1.89;100.00
41264;BME280;26998;48.714;9.414;2023-02-28T05:21:51;99422.47;;;-1.92;100.00
41264;BME280;26998;48.714;9.414;2023-02-28T05:24:18;99428.44;;;-1.90;100.00
41264;BME280;26998;48.714;9.414;2023-02-28T05:26:45;99426.13;;;-1.94;100.00
41264;BME280;26998;48.714;9.414;2023-02-28T05:29:11;99434.59;;;-1.91;100.00
41264;BME280;26998;48.714;9.414;2023-02-28T05:31:38;99431.16;;;-1.78;100.00
41264;BME280;26998;48.714;9.414;2023-02-28T05:34:08;99430.94;;;-1.88;100.00
41264;BME280;26998;48.714;9.414;2023-02-28T05:36:38;99427.69;;;-1.92;100.00
41264;BME280;26998;48.714;9.414;2023-02-28T05:39:07;99439.13;;;-1.93;100.00
41264;BME280;26998;48.714;9.414;2023-02-28T05:41:34;99433.97;;;-1.81;100.00
41264;BME280;26998;48.714;9.414;2023-02-28T05:44:01;99435.47;;;-1.77;100.00
41264;BME280;26998;48.714;9.414;2023-02-28T05:46:28;99438.09;;;-1.77;100.00
41264;BME280;26998;48.714;9.414;2023-02-28T05:48:57;99434.94;;;-1.82;100.00
41264;BME280;26998;48.714;9.414;2023-02-28T05:51:24;99433.97;;;-1.81;100.00
41264;BME280;26998;48.714;9.414;2023-02-28T05:53:50;99443.28;;;-1.90;100.00
41264;BME280;26998;48.714;9.414;2023-02-28T05:56:17;99443.00;;;-1.86;100.00
41264;BME280;26998;48.714;9.414;2023-02-28T05:58:44;99445.72;;;-1.87;100.00
41264;BME280;26998;48.714;9.414;2023-02-28T06:03:48;99455.06;;;-1.83;100.00
41264;BME280;26998;48.714;9.414;2023-02-28T06:06:14;99452.53;;;-1.84;100.00
41264;BME280;26998;48.714;9.414;2023-02-28T06:08:41;99448.31;;;-1.87;100.00
41264;BME280;26998;48.714;9.414;2023-02-28T06:11:07;99450.84;;;-1.86;100.00
41264;BME280;26998;48.714;9.414;2023-02-28T06:13:34;99449.91;;;-1.84;100.00
41264;BME280;26998;48.714;9.414;2023-02-28T06:16:01;99443.94;;;-1.87;100.00
41264;BME280;26998;48.714;9.414;2023-02-28T06:18:27;99443.84;;;-1.85;100.00
41264;BME280;26998;48.714;9.414;2023-02-28T06:20:54;99450.53;;;-1.81;100.00
41264;BME280;26998;48.714;9.414;2023-02-28T06:23:22;99452.53;;;-1.84;100.00
41264;BME280;26998;48.714;9.414;2023-02-28T06:25:48;99452.84;;;-1.64;100.00
41264;BME280;26998;48.714;9.414;2023-02-28T06:28:15;99456.94;;;-1.72;100.00
41264;BME280;26998;48.714;9.414;2023-02-28T06:30:42;99458.84;;;-1.74;100.00
41264;BME280;26998;48.714;9.414;2023-02-28T06:33:11;99462.91;;;-1.83;100.00
41264;BME280;26998;48.714;9.414;2023-02-28T06:35:38;99467.63;;;-1.75;100.00
41264;BME280;26998;48.714;9.414;2023-02-28T06:38:05;99465.31;;;-1.67;100.00
41264;BME280;26998;48.714;9.414;2023-02-28T06:40:32;99476.63;;;-1.54;100.00
41264;BME280;26998;48.714;9.414;2023-02-28T06:42:58;99469.19;;;-1.60;100.00
41264;BME280;26998;48.714;9.414;2023-02-28T06:45:25;99480.00;;;-1.52;100.00
41264;BME280;26998;48.714;9.414;2023-02-28T06:47:51;99472.44;;;-1.56;100.00
41264;BME280;26998;48.714;9.414;2023-02-28T06:50:19;99473.59;;;-1.60;100.00
41264;BME280;26998;48.714;9.414;2023-02-28T06:52:46;99474.84;;;-1.66;100.00
41264;BME280;26998;48.714;9.414;2023-02-28T06:55:13;99478.31;;;-1.66;100.00
41264;BME280;26998;48.714;9.414;2023-02-28T06:57:41;99478.00;;;-1.61;100.00
41264;BME280;26998;48.714;9.414;2023-02-28T07:00:09;99481.88;;;-1.54;100.00
41264;BME280;26998;48.714;9.414;2023-02-28T07:02:36;99479.25;;;-1.54;100.00
41264;BME280;26998;48.714;9.414;2023-02-28T07:05:04;99480.91;;;-1.53;100.00
41264;BME280;26998;48.714;9.414;2023-02-28T07:07:30;99482.50;;;-1.63;100.00
41264;BME280;26998;48.714;9.414;2023-02-28T07:09:57;99483.44;;;-1.51;100.00
41264;BME280;26998;48.714;9.414;2023-02-28T07:12:23;99489.00;;;-1.56;100.00
41264;BME280;26998;48.714;9.414;2023-02-28T07:14:53;99494.16;;;-1.54;100.00
41264;BME280;26998;48.714;9.414;2023-02-28T07:17:19;99494.69;;;-1.49;100.00
41264;BME280;26998;48.714;9.414;2023-02-28T07:19:46;99497.81;;;-1.57;100.00
41264;BME280;26998;48.714;9.414;2023-02-28T07:22:14;99485.88;;;-1.48;100.00
41264;BME280;26998;48.714;9.414;2023-02-28T07:24:43;99490.47;;;-1.39;100.00
41264;BME280;26998;48.714;9.414;2023-02-28T07:27:10;99491.50;;;-1.29;100.00
41264;BME280;26998;48.714;9.414;2023-02-28T07:29:40;99492.22;;;-1.14;100.00
41264;BME280;26998;48.714;9.414;2023-02-28T07:32:06;99498.50;;;-1.17;100.00
41264;BME280;26998;48.714;9.414;2023-02-28T07:34:33;99486.03;;;-1.26;100.00
41264;BME280;26998;48.714;9.414;2023-02-28T07:37:00;99489.25;;;-1.09;100.00
41264;BME280;26998;48.714;9.414;2023-02-28T07:39:27;99478.25;;;-1.14;100.00
41264;BME280;26998;48.714;9.414;2023-02-28T07:41:54;99483.59;;;-1.16;100.00
41264;BME280;26998;48.714;9.414;2023-02-28T07:44:21;99486.44;;;-1.19;100.00
41264;BME280;26998;48.714;9.414;2023-02-28T07:46:47;99478.53;;;-1.06;100.00
41264;BME280;26998;48.714;9.414;2023-02-28T07:49:14;99484.50;;;-0.91;100.00
41264;BME280;26998;48.714;9.414;2023-02-28T07:51:41;99487.84;;;-0.89;100.00
41264;BME280;26998;48.714;9.414;2023-02-28T07:54:09;99479.81;;;-0.99;100.00
41264;BME280;26998;48.714;9.414;2023-02-28T07:56:36;99487.63;;;-0.86;100.00
41264;BME280;26998;48.714;9.414;2023-02-28T07:59:03;99480.50;;;-0.97;100.00
41264;BME280;26998;48.714;9.414;2023-02-28T08:01:29;99479.47;;;-0.95;100.00
41264;BME280;26998;48.714;9.414;2023-02-28T08:03:56;99482.63;;;-0.65;100.00
41264;BME280;26998;48.714;9.414;2023-02-28T08:06:24;99488.56;;;-0.87;100.00
41264;BME280;26998;48.714;9.414;2023-02-28T08:08:52;99487.13;;;-0.91;100.00
41264;BME280;26998;48.714;9.414;2023-02-28T08:11:19;99489.81;;;-0.80;100.00
41264;BME280;26998;48.714;9.414;2023-02-28T08:13:46;99485.50;;;-0.81;100.00
41264;BME280;26998;48.714;9.414;2023-02-28T08:16:13;99496.22;;;-0.84;100.00
41264;BME280;26998;48.714;9.414;2023-02-28T08:18:40;99498.56;;;-0.93;100.00
41264;BME280;26998;48.714;9.414;2023-02-28T08:21:09;99496.16;;;-0.59;100.00
41264;BME280;26998;48.714;9.414;2023-02-28T08:23:36;99504.56;;;-1.03;100.00
41264;BME280;26998;48.714;9.414;2023-02-28T08:26:04;99497.25;;;-0.74;100.00
41264;BME280;26998;48.714;9.414;2023-02-28T08:28:32;99504.69;;;-0.68;100.00
41264;BME280;26998;48.714;9.414;2023-02-28T08:30:59;99496.38;;;-0.62;100.00
41264;BME280;26998;48.714;9.414;2023-02-28T08:33:27;99501.84;;;-0.65;100.00
41264;BME280;26998;48.714;9.414;2023-02-28T08:35:55;99492.44;;;-0.80;100.00
41264;BME280;26998;48.714;9.414;2023-02-28T08:38:22;99488.50;;;-0.62;100.00
41264;BME280;26998;48.714;9.414;2023-02-28T08:40:49;99486.47;;;-0.58;100.00
41264;BME280;26998;48.714;9.414;2023-02-28T08:43:16;99492.00;;;-0.74;100.00
41264;BME280;26998;48.714;9.414;2023-02-28T08:45:42;99483.28;;;-0.51;100.00
41264;BME280;26998;48.714;9.414;2023-02-28T08:48:09;99504.03;;;-0.59;100.00
41264;BME280;26998;48.714;9.414;2023-02-28T08:50:35;99497.13;;;-0.25;100.00
41264;BME280;26998;48.714;9.414;2023-02-28T08:53:02;99497.06;;;-0.60;100.00
41264;BME280;26998;48.714;9.414;2023-02-28T08:55:28;99496.31;;;-0.49;100.00
41264;BME280;26998;48.714;9.414;2023-02-28T08:57:55;99494.59;;;-0.26;100.00
41264;BME280;26998;48.714;9.414;2023-02-28T09:00:22;99487.63;;;-0.38;100.00
41264;BME280;26998;48.714;9.414;2023-02-28T09:02:51;99490.38;;;-0.40;100.00
41264;BME280;26998;48.714;9.414;2023-02-28T09:05:18;99494.91;;;-0.07;100.00
41264;BME280;26998;48.714;9.414;2023-02-28T09:07:45;99495.91;;;0.04;100.00
41264;BME280;26998;48.714;9.414;2023-02-28T09:10:12;99499.25;;;0.06;100.00
41264;BME280;26998;48.714;9.414;2023-02-28T09:12:39;99497.44;;;0.06;100.00
41264;BME280;26998;48.714;9.414;2023-02-28T09:15:10;99500.50;;;0.35;100.00
41264;BME280;26998;48.714;9.414;2023-02-28T09:17:39;99509.13;;;0.49;100.00
41264;BME280;26998;48.714;9.414;2023-02-28T09:20:08;99500.97;;;0.29;100.00
41264;BME280;26998;48.714;9.414;2023-02-28T09:22:46;99514.41;;;0.49;100.00
41264;BME280;26998;48.714;9.414;2023-02-28T09:25:15;99505.56;;;0.61;100.00
41264;BME280;26998;48.714;9.414;2023-02-28T09:27:42;99505.97;;;0.21;100.00
41264;BME280;26998;48.714;9.414;2023-02-28T09:30:14;99512.56;;;0.27;99.93
41264;BME280;26998;48.714;9.414;2023-02-28T09:32:41;99510.50;;;0.08;98.31
41264;BME280;26998;48.714;9.414;2023-02-28T09:35:08;99512.97;;;0.44;98.42
41264;BME280;26998;48.714;9.414;2023-02-28T09:37:35;99510.56;;;0.53;97.36
41264;BME280;26998;48.714;9.414;2023-02-28T09:40:02;99510.31;;;0.22;98.46
41264;BME280;26998;48.714;9.414;2023-02-28T09:42:36;99518.78;;;0.37;98.37
41264;BME280;26998;48.714;9.414;2023-02-28T09:45:24;99523.75;;;0.64;95.35
41264;BME280;26998;48.714;9.414;2023-02-28T09:47:56;99517.31;;;0.21;97.80
41264;BME280;26998;48.714;9.414;2023-02-28T09:50:33;99515.69;;;0.32;98.70
41264;BME280;26998;48.714;9.414;2023-02-28T09:53:26;99525.38;;;0.42;98.15
41264;BME280;26998;48.714;9.414;2023-02-28T09:55:54;99521.94;;;0.64;97.24
41264;BME280;26998;48.714;9.414;2023-02-28T09:58:32;99521.81;;;0.55;98.11
41264;BME280;26998;48.714;9.414;2023-02-28T10:01:25;99526.47;;;0.96;95.67
41264;BME280;26998;48.714;9.414;2023-02-28T10:04:03;99534.41;;;0.62;95.97
41264;BME280;26998;48.714;9.414;2023-02-28T10:06:41;99537.63;;;0.88;94.22
41264;BME280;26998;48.714;9.414;2023-02-28T10:09:17;99531.75;;;0.62;97.01
41264;BME280;26998;48.714;9.414;2023-02-28T10:11:45;99532.22;;;0.67;97.04
41264;BME280;26998;48.714;9.414;2023-02-28T10:14:17;99532.00;;;0.59;97.56
41264;BME280;26998;48.714;9.414;2023-02-28T10:16:53;99542.53;;;1.15;94.58
41264;BME280;26998;48.714;9.414;2023-02-28T10:19:32;99535.56;;;1.14;93.05
41264;BME280;26998;48.714;9.414;2023-02-28T10:22:08;99540.78;;;1.48;90.00
41264;BME280;26998;48.714;9.414;2023-02-28T10:24:39;99540.63;;;1.61;89.29
41264;BME280;26998;48.714;9.414;2023-02-28T10:27:17;99536.63;;;1.34;93.27
41264;BME280;26998;48.714;9.414;2023-02-28T10:29:46;99550.97;;;1.30;93.75
41264;BME280;26998;48.714;9.414;2023-02-28T10:32:17;99543.81;;;1.44;92.51
41264;BME280;26998;48.714;9.414;2023-02-28T10:34:44;99537.72;;;1.32;93.12
41264;BME280;26998;48.714;9.414;2023-02-28T10:37:19;99548.09;;;1.33;92.78
41264;BME280;26998;48.714;9.414;2023-02-28T10:39:48;99543.91;;;1.42;89.87
41264;BME280;26998;48.714;9.414;2023-02-28T10:42:24;99539.28;;;1.12;92.01
41264;BME280;26998;48.714;9.414;2023-02-28T10:45:15;99543.09;;;1.30;91.85
41264;BME280;26998;48.714;9.414;2023-02-28T10:47:56;99541.56;;;1.28;92.43
41264;BME280;26998;48.714;9.414;2023-02-28T10:50:44;99543.75;;;1.55;91.54
41264;BME280;26998;48.714;9.414;2023-02-28T10:55:43;99534.41;;;1.62;91.35
41264;BME280;26998;48.714;9.414;2023-02-28T10:58:24;99534.28;;;1.64;89.75
41264;BME280;26998;48.714;9.414;2023-02-28T11:00:52;99530.81;;;1.63;89.08
41264;BME280;26998;48.714;9.414;2023-02-28T11:03:35;99528.75;;;1.99;87.73
41264;BME280;26998;48.714;9.414;2023-02-28T11:06:07;99531.84;;;2.04;86.61
41264;BME280;26998;48.714;9.414;2023-02-28T11:08:43;99536.94;;;2.17;86.15
41264;BME280;26998;48.714;9.414;2023-02-28T11:11:11;99528.59;;;2.33;85.55
41264;BME280;26998;48.714;9.414;2023-02-28T11:13:38;99535.16;;;2.59;82.76
41264;BME280;26998;48.714;9.414;2023-02-28T11:16:07;99533.53;;;2.47;83.73
41264;BME280;26998;48.714;9.414;2023-02-28T11:18:40;99532.59;;;2.78;80.92
41264;BME280;26998;48.714;9.414;2023-02-28T11:21:09;99526.88;;;2.73;80.60
41264;BME280;26998;48.714;9.414;2023-02-28T11:23:41;99521.13;;;2.99;77.28
41264;BME280;26998;48.714;9.414;2023-02-28T11:26:08;99521.81;;;2.91;77.38
41264;BME280;26998;48.714;9.414;2023-02-28T11:28:37;99518.91;;;3.35;74.42
41264;BME280;26998;48.714;9.414;2023-02-28T11:31:21;99519.16;;;3.22;75.95
41264;BME280;26998;48.714;9.414;2023-02-28T11:34:22;99516.75;;;4.18;67.25
41264;BME280;26998;48.714;9.414;2023-02-28T11:36:56;99516.59;;;4.19;66.31
41264;BME280;26998;48.714;9.414;2023-02-28T11:39:27;99511.94;;;3.34;70.39
41264;BME280;26998;48.714;9.414;2023-02-28T11:42:07;99502.38;;;4.01;67.86
41264;BME280;26998;48.714;9.414;2023-02-28T11:48:09;99498.47;;;4.05;66.34
41264;BME280;26998;48.714;9.414;2023-02-28T11:51:08;99504.22;;;3.90;65.81
41264;BME280;26998;48.714;9.414;2023-02-28T11:56:32;99502.03;;;4.52;64.27
41264;BME280;26998;48.714;9.414;2023-02-28T12:01:45;99511.75;;;5.72;54.63
41264;BME280;26998;48.714;9.414;2023-02-28T12:04:47;99511.66;;;5.46;54.54
41264;BME280;26998;48.714;9.414;2023-02-28T12:10:36;99508.50;;;5.42;55.73
41264;BME280;26998;48.714;9.414;2023-02-28T12:13:21;99496.06;;;4.88;57.41
41264;BME280;26998;48.714;9.414;2023-02-28T12:15:58;99493.78;;;5.02;58.33
41264;BME280;26998;48.714;9.414;2023-02-28T12:21:45;99487.91;;;4.71;60.55
41264;BME280;26998;48.714;9.414;2023-02-28T12:24:30;99483.00;;;5.04;59.25
41264;BME280;26998;48.714;9.414;2023-02-28T12:27:02;99494.31;;;4.69;59.10
41264;BME280;26998;48.714;9.414;2023-02-28T12:32:37;99481.75;;;5.08;57.31
41264;BME280;26998;48.714;9.414;2023-02-28T12:37:41;99477.88;;;5.30;57.64
41264;BME280;26998;48.714;9.414;2023-02-28T12:40:13;99477.00;;;5.29;58.98
41264;BME280;26998;48.714;9.414;2023-02-28T12:42:45;99473.63;;;5.37;56.14
41264;BME280;26998;48.714;9.414;2023-02-28T12:45:18;99461.66;;;5.69;55.89
41264;BME280;26998;48.714;9.414;2023-02-28T12:47:50;99466.09;;;5.32;54.39
41264;BME280;26998;48.714;9.414;2023-02-28T12:50:19;99460.69;;;5.52;55.42
41264;BME280;26998;48.714;9.414;2023-02-28T12:58:50;99454.31;;;5.45;55.90
41264;BME280;26998;48.714;9.414;2023-02-28T13:07:13;99451.56;;;4.91;56.53
41264;BME280;26998;48.714;9.414;2023-02-28T13:09:53;99437.22;;;5.39;57.42
41264;BME280;26998;48.714;9.414;2023-02-28T13:12:26;99431.28;;;5.63;56.15
41264;BME280;26998;48.714;9.414;2023-02-28T13:15:30;99431.34;;;5.18;55.40
41264;BME280;26998;48.714;9.414;2023-02-28T13:17:59;99423.38;;;5.00;57.05
41264;BME280;26998;48.714;9.414;2023-02-28T13:20:29;99432.00;;;5.91;57.00
41264;BME280;26998;48.714;9.414;2023-02-28T13:26:13;99433.94;;;5.81;52.56
41264;BME280;26998;48.714;9.414;2023-02-28T13:31:21;99419.22;;;5.87;54.15
41264;BME280;26998;48.714;9.414;2023-02-28T13:46:35;99427.47;;;6.54;50.61
41264;BME280;26998;48.714;9.414;2023-02-28T14:03:32;99433.44;;;6.21;50.66
41264;BME280;26998;48.714;9.414;2023-02-28T14:06:18;99421.59;;;5.72;52.54
41264;BME280;26998;48.714;9.414;2023-02-28T14:15:03;99431.31;;;6.25;51.09
41264;BME280;26998;48.714;9.414;2023-02-28T14:17:31;99422.94;;;5.94;50.29
41264;BME280;26998;48.714;9.414;2023-02-28T14:20:17;99431.06;;;5.56;51.53
41264;BME280;26998;48.714;9.414;2023-02-28T14:23:16;99426.19;;;6.06;51.20
41264;BME280;26998;48.714;9.414;2023-02-28T14:32:02;99442.72;;;5.64;53.22
41264;BME280;26998;48.714;9.414;2023-02-28T14:38:05;99458.03;;;5.70;52.60
41264;BME280;26998;48.714;9.414;2023-02-28T14:40:35;99450.47;;;5.75;53.03
41264;BME280;26998;48.714;9.414;2023-02-28T14:43:16;99446.81;;;5.76;52.98
41264;BME280;26998;48.714;9.414;2023-02-28T14:45:50;99443.25;;;5.31;53.57
41264;BME280;26998;48.714;9.414;2023-02-28T14:48:18;99443.25;;;5.31;55.78
41264;BME280;26998;48.714;9.414;2023-02-28T14:50:56;99450.09;;;5.52;55.74
41264;BME280;26998;48.714;9.414;2023-02-28T14:53:35;99455.41;;;5.52;55.57
41264;BME280;26998;48.714;9.414;2023-02-28T14:56:34;99446.63;;;5.06;56.33
41264;BME280;26998;48.714;9.414;2023-02-28T14:59:26;99451.38;;;5.02;57.98
41264;BME280;26998;48.714;9.414;2023-02-28T15:04:41;99456.88;;;4.91;58.71
41264;BME280;26998;48.714;9.414;2023-02-28T15:07:21;99444.09;;;5.04;59.46
41264;BME280;26998;48.714;9.414;2023-02-28T15:12:59;99457.81;;;5.00;59.46
41264;BME280;26998;48.714;9.414;2023-02-28T15:21:18;99451.16;;;5.14;58.65
41264;BME280;26998;48.714;9.414;2023-02-28T15:23:51;99454.56;;;4.78;59.77